sensor_id;sensor_type;location;lat;lon;timestamp;P1;durP1;ratioP1;P2;durP2;ratioP2
67819;SDS011;54618;52.018;5.576;2023-01-19T00:01:53;5.38;;;1.98;;
67819;SDS011;54618;52.018;5.576;2023-01-19T00:04:19;4.88;;;2.25;;
67819;SDS011;54618;52.018;5.576;2023-01-19T00:06:44;4.50;;;2.05;;
67819;SDS011;54618;52.018;5.576;2023-01-19T00:09:10;4.53;;;2.08;;
67819;SDS011;54618;52.018;5.576;2023-01-19T00:11:35;5.85;;;2.40;;
67819;SDS011;54618;52.018;5.576;2023-01-19T00:14:01;5.25;;;1.98;;
67819;SDS011;54618;52.018;5.576;2023-01-19T00:16:27;4.95;;;2.10;;
67819;SDS011;54618;52.018;5.576;2023-01-19T00:18:52;5.32;;;1.98;;
67819;SDS011;54618;52.018;5.576;2023-01-19T00:21:18;4.13;;;1.90;;
67819;SDS011;54618;52.018;5.576;2023-01-19T00:23:45;4.45;;;2.20;;
67819;SDS011;54618;52.018;5.576;2023-01-19T00:26:12;4.75;;;2.03;;
67819;SDS011;54618;52.018;5.576;2023-01-19T00:28:41;4.45;;;1.95;;
67819;SDS011;54618;52.018;5.576;2023-01-19T00:31:10;4.70;;;2.00;;
67819;SDS011;54618;52.018;5.576;2023-01-19T00:33:36;5.72;;;1.90;;
67819;SDS011;54618;52.018;5.576;2023-01-19T00:36:01;4.90;;;1.90;;
67819;SDS011;54618;52.018;5.576;2023-01-19T00:38:28;5.20;;;2.05;;
67819;SDS011;54618;52.018;5.576;2023-01-19T00:40:53;4.25;;;1.80;;
67819;SDS011;54618;52.018;5.576;2023-01-19T00:43:19;4.28;;;1.90;;
67819;SDS011;54618;52.018;5.576;2023-01-19T00:45:44;6.07;;;2.08;;
67819;SDS011;54618;52.018;5.576;2023-01-19T00:48:10;3.33;;;1.83;;
67819;SDS011;54618;52.018;5.576;2023-01-19T00:50:35;4.22;;;2.13;;
67819;SDS011;54618;52.018;5.576;2023-01-19T00:53:01;4.15;;;1.92;;
67819;SDS011;54618;52.018;5.576;2023-01-19T00:55:27;3.75;;;1.90;;
67819;SDS011;54618;52.018;5.576;2023-01-19T00:57:53;6.25;;;2.17;;
67819;SDS011;54618;52.018;5.576;2023-01-19T01:00:20;4.10;;;1.77;;
67819;SDS011;54618;52.018;5.576;2023-01-19T01:02:46;3.85;;;2.00;;
67819;SDS011;54618;52.018;5.576;2023-01-19T01:05:13;3.13;;;1.70;;
67819;SDS011;54618;52.018;5.576;2023-01-19T01:07:39;3.63;;;1.80;;
67819;SDS011;54618;52.018;5.576;2023-01-19T01:10:10;5.53;;;1.90;;
67819;SDS011;54618;52.018;5.576;2023-01-19T01:12:44;4.00;;;1.67;;
67819;SDS011;54618;52.018;5.576;2023-01-19T01:15:10;5.22;;;2.00;;
67819;SDS011;54618;52.018;5.576;2023-01-19T01:17:37;5.22;;;1.90;;
67819;SDS011;54618;52.018;5.576;2023-01-19T01:20:10;4.82;;;2.10;;
67819;SDS011;54618;52.018;5.576;2023-01-19T01:22:42;4.28;;;1.83;;
67819;SDS011;54618;52.018;5.576;2023-01-19T01:25:15;3.97;;;2.10;;
67819;SDS011;54618;52.018;5.576;2023-01-19T01:27:42;4.97;;;2.17;;
67819;SDS011;54618;52.018;5.576;2023-01-19T01:30:08;4.85;;;2.20;;
67819;SDS011;54618;52.018;5.576;2023-01-19T01:32:36;3.63;;;1.52;;
67819;SDS011;54618;52.018;5.576;2023-01-19T01:35:01;4.13;;;2.08;;
67819;SDS011;54618;52.018;5.576;2023-01-19T01:37:27;3.95;;;1.70;;
67819;SDS011;54618;52.018;5.576;2023-01-19T01:39:53;4.97;;;2.08;;
67819;SDS011;54618;52.018;5.576;2023-01-19T01:42:23;4.32;;;1.55;;
67819;SDS011;54618;52.018;5.576;2023-01-19T01:44:57;3.40;;;1.50;;
67819;SDS011;54618;52.018;5.576;2023-01-19T01:49:58;3.78;;;1.88;;
67819;SDS011;54618;52.018;5.576;2023-01-19T01:52:33;3.95;;;2.08;;
67819;SDS011;54618;52.018;5.576;2023-01-19T01:55:03;3.50;;;1.67;;
67819;SDS011;54618;52.018;5.576;2023-01-19T01:57:31;4.32;;;2.10;;
67819;SDS011;54618;52.018;5.576;2023-01-19T02:00:03;4.97;;;2.00;;
67819;SDS011;54618;52.018;5.576;2023-01-19T02:02:30;4.72;;;1.67;;
67819;SDS011;54618;52.018;5.576;2023-01-19T02:05:31;3.97;;;1.80;;
67819;SDS011;54618;52.018;5.576;2023-01-19T02:08:01;3.80;;;1.92;;
67819;SDS011;54618;52.018;5.576;2023-01-19T02:10:48;3.30;;;1.70;;
67819;SDS011;54618;52.018;5.576;2023-01-19T02:13:35;3.50;;;1.70;;
67819;SDS011;54618;52.018;5.576;2023-01-19T02:16:06;3.72;;;1.55;;
67819;SDS011;54618;52.018;5.576;2023-01-19T02:18:34;4.47;;;1.77;;
67819;SDS011;54618;52.018;5.576;2023-01-19T02:21:19;3.85;;;1.83;;
67819;SDS011;54618;52.018;5.576;2023-01-19T02:24:00;4.50;;;1.83;;
67819;SDS011;54618;52.018;5.576;2023-01-19T02:26:32;3.60;;;1.55;;
67819;SDS011;54618;52.018;5.576;2023-01-19T02:29:07;4.82;;;1.85;;
67819;SDS011;54618;52.018;5.576;2023-01-19T02:31:34;3.90;;;1.70;;
67819;SDS011;54618;52.018;5.576;2023-01-19T02:34:02;3.60;;;1.75;;
67819;SDS011;54618;52.018;5.576;2023-01-19T02:36:31;4.18;;;1.60;;
67819;SDS011;54618;52.018;5.576;2023-01-19T02:39:01;4.47;;;1.63;;
67819;SDS011;54618;52.018;5.576;2023-01-19T02:41:29;4.30;;;1.80;;
67819;SDS011;54618;52.018;5.576;2023-01-19T02:44:01;3.28;;;1.65;;
67819;SDS011;54618;52.018;5.576;2023-01-19T02:46:28;3.45;;;1.52;;
67819;SDS011;54618;52.018;5.576;2023-01-19T02:48:57;3.70;;;1.42;;
67819;SDS011;54618;52.018;5.576;2023-01-19T02:51:24;3.93;;;1.60;;
67819;SDS011;54618;52.018;5.576;2023-01-19T02:54:07;3.83;;;1.60;;
67819;SDS011;54618;52.018;5.576;2023-01-19T02:59:29;2.25;;;1.40;;
67819;SDS011;54618;52.018;5.576;2023-01-19T03:02:28;3.67;;;1.40;;
67819;SDS011;54618;52.018;5.576;2023-01-19T03:10:33;2.30;;;1.30;;
67819;SDS011;54618;52.018;5.576;2023-01-19T03:18:15;2.75;;;1.30;;
67819;SDS011;54618;52.018;5.576;2023-01-19T03:20:44;2.53;;;1.15;;
67819;SDS011;54618;52.018;5.576;2023-01-19T03:23:12;3.45;;;1.67;;
67819;SDS011;54618;52.018;5.576;2023-01-19T03:25:40;2.65;;;1.25;;
67819;SDS011;54618;52.018;5.576;2023-01-19T03:28:09;3.33;;;1.37;;
67819;SDS011;54618;52.018;5.576;2023-01-19T03:30:38;2.20;;;1.05;;
67819;SDS011;54618;52.018;5.576;2023-01-19T03:33:11;2.17;;;1.10;;
67819;SDS011;54618;52.018;5.576;2023-01-19T03:35:48;2.00;;;1.10;;
67819;SDS011;54618;52.018;5.576;2023-01-19T03:38:19;2.80;;;1.10;;
67819;SDS011;54618;52.018;5.576;2023-01-19T03:40:49;2.75;;;1.15;;
67819;SDS011;54618;52.018;5.576;2023-01-19T03:43:19;2.30;;;1.02;;
67819;SDS011;54618;52.018;5.576;2023-01-19T03:45:47;2.42;;;1.20;;
67819;SDS011;54618;52.018;5.576;2023-01-19T03:48:14;3.20;;;1.17;;
67819;SDS011;54618;52.018;5.576;2023-01-19T03:50:40;1.95;;;1.00;;
67819;SDS011;54618;52.018;5.576;2023-01-19T03:53:09;2.25;;;1.10;;
67819;SDS011;54618;52.018;5.576;2023-01-19T03:55:37;2.30;;;1.02;;
67819;SDS011;54618;52.018;5.576;2023-01-19T03:58:05;2.30;;;0.90;;
67819;SDS011;54618;52.018;5.576;2023-01-19T04:00:31;2.03;;;0.88;;
67819;SDS011;54618;52.018;5.576;2023-01-19T04:02:58;2.38;;;1.00;;
67819;SDS011;54618;52.018;5.576;2023-01-19T04:05:24;2.85;;;0.90;;
67819;SDS011;54618;52.018;5.576;2023-01-19T04:07:50;1.63;;;0.90;;
67819;SDS011;54618;52.018;5.576;2023-01-19T04:10:16;2.63;;;1.10;;
67819;SDS011;54618;52.018;5.576;2023-01-19T04:12:43;2.25;;;1.08;;
67819;SDS011;54618;52.018;5.576;2023-01-19T04:15:09;2.30;;;0.85;;
67819;SDS011;54618;52.018;5.576;2023-01-19T04:17:35;2.75;;;1.00;;
67819;SDS011;54618;52.018;5.576;2023-01-19T04:20:02;1.70;;;0.90;;
67819;SDS011;54618;52.018;5.576;2023-01-19T04:22:27;2.47;;;0.88;;
67819;SDS011;54618;52.018;5.576;2023-01-19T04:24:53;1.90;;;0.80;;
67819;SDS011;54618;52.018;5.576;2023-01-19T04:27:19;1.92;;;0.80;;
67819;SDS011;54618;52.018;5.576;2023-01-19T04:29:45;1.85;;;0.85;;
67819;SDS011;54618;52.018;5.576;2023-01-19T04:32:11;2.58;;;0.77;;
67819;SDS011;54618;52.018;5.576;2023-01-19T04:34:38;1.83;;;0.77;;
67819;SDS011;54618;52.018;5.576;2023-01-19T04:37:03;1.30;;;0.80;;
67819;SDS011;54618;52.018;5.576;2023-01-19T04:39:29;2.75;;;1.10;;
67819;SDS011;54618;52.018;5.576;2023-01-19T04:41:54;2.08;;;0.90;;
67819;SDS011;54618;52.018;5.576;2023-01-19T04:44:21;1.55;;;0.70;;
67819;SDS011;54618;52.018;5.576;2023-01-19T04:46:47;3.00;;;0.90;;
67819;SDS011;54618;52.018;5.576;2023-01-19T04:49:13;2.08;;;0.80;;
67819;SDS011;54618;52.018;5.576;2023-01-19T04:51:39;1.55;;;0.80;;
67819;SDS011;54618;52.018;5.576;2023-01-19T04:54:05;1.58;;;0.70;;
67819;SDS011;54618;52.018;5.576;2023-01-19T04:56:32;2.88;;;0.80;;
67819;SDS011;54618;52.018;5.576;2023-01-19T04:58:58;1.63;;;0.77;;
67819;SDS011;54618;52.018;5.576;2023-01-19T05:01:24;1.38;;;0.70;;
67819;SDS011;54618;52.018;5.576;2023-01-19T05:03:49;2.08;;;0.88;;
67819;SDS011;54618;52.018;5.576;2023-01-19T05:06:15;2.15;;;0.80;;
67819;SDS011;54618;52.018;5.576;2023-01-19T05:08:40;1.67;;;0.57;;
67819;SDS011;54618;52.018;5.576;2023-01-19T05:11:06;1.08;;;0.60;;
67819;SDS011;54618;52.018;5.576;2023-01-19T05:13:31;1.38;;;0.70;;
67819;SDS011;54618;52.018;5.576;2023-01-19T05:15:57;1.70;;;0.70;;
67819;SDS011;54618;52.018;5.576;2023-01-19T05:18:23;1.60;;;0.70;;
67819;SDS011;54618;52.018;5.576;2023-01-19T05:20:48;2.33;;;0.80;;
67819;SDS011;54618;52.018;5.576;2023-01-19T05:23:14;1.63;;;0.70;;
67819;SDS011;54618;52.018;5.576;2023-01-19T05:25:40;1.00;;;0.60;;
67819;SDS011;54618;52.018;5.576;2023-01-19T05:28:07;1.50;;;0.60;;
67819;SDS011;54618;52.018;5.576;2023-01-19T05:30:32;1.35;;;0.63;;
67819;SDS011;54618;52.018;5.576;2023-01-19T05:32:58;0.77;;;0.50;;
67819;SDS011;54618;52.018;5.576;2023-01-19T05:35:23;1.13;;;0.50;;
67819;SDS011;54618;52.018;5.576;2023-01-19T05:37:49;1.38;;;0.70;;
67819;SDS011;54618;52.018;5.576;2023-01-19T05:40:14;1.55;;;0.70;;
67819;SDS011;54618;52.018;5.576;2023-01-19T05:42:40;1.13;;;0.68;;
67819;SDS011;54618;52.018;5.576;2023-01-19T05:45:06;1.20;;;0.63;;
67819;SDS011;54618;52.018;5.576;2023-01-19T05:47:32;1.23;;;0.60;;
67819;SDS011;54618;52.018;5.576;2023-01-19T05:49:57;2.10;;;0.65;;
67819;SDS011;54618;52.018;5.576;2023-01-19T05:52:23;1.65;;;0.60;;
67819;SDS011;54618;52.018;5.576;2023-01-19T05:54:49;1.42;;;0.68;;
67819;SDS011;54618;52.018;5.576;2023-01-19T05:57:15;2.33;;;0.75;;
67819;SDS011;54618;52.018;5.576;2023-01-19T05:59:41;1.30;;;0.70;;
67819;SDS011;54618;52.018;5.576;2023-01-19T06:02:07;1.60;;;0.63;;
67819;SDS011;54618;52.018;5.576;2023-01-19T06:04:33;1.95;;;0.60;;
67819;SDS011;54618;52.018;5.576;2023-01-19T06:06:58;1.25;;;0.50;;
67819;SDS011;54618;52.018;5.576;2023-01-19T06:09:24;1.67;;;0.73;;
67819;SDS011;54618;52.018;5.576;2023-01-19T06:11:49;1.25;;;0.60;;
67819;SDS011;54618;52.018;5.576;2023-01-19T06:14:18;1.30;;;0.60;;
67819;SDS011;54618;52.018;5.576;2023-01-19T06:16:43;1.38;;;0.60;;
67819;SDS011;54618;52.018;5.576;2023-01-19T06:19:09;1.98;;;0.60;;
67819;SDS011;54618;52.018;5.576;2023-01-19T06:21:34;1.10;;;0.60;;
67819;SDS011;54618;52.018;5.576;2023-01-19T06:24:00;1.38;;;0.65;;
67819;SDS011;54618;52.018;5.576;2023-01-19T06:26:27;1.23;;;0.60;;
67819;SDS011;54618;52.018;5.576;2023-01-19T06:28:52;1.63;;;0.57;;
67819;SDS011;54618;52.018;5.576;2023-01-19T06:31:19;0.55;;;0.40;;
67819;SDS011;54618;52.018;5.576;2023-01-19T06:33:44;1.20;;;0.50;;
67819;SDS011;54618;52.018;5.576;2023-01-19T06:36:10;1.20;;;0.60;;
67819;SDS011;54618;52.018;5.576;2023-01-19T06:38:35;1.10;;;0.60;;
67819;SDS011;54618;52.018;5.576;2023-01-19T06:41:01;0.90;;;0.40;;
67819;SDS011;54618;52.018;5.576;2023-01-19T06:43:27;2.10;;;0.60;;
67819;SDS011;54618;52.018;5.576;2023-01-19T06:45:53;1.80;;;0.57;;
67819;SDS011;54618;52.018;5.576;2023-01-19T06:48:19;1.60;;;0.60;;
67819;SDS011;54618;52.018;5.576;2023-01-19T06:50:46;1.30;;;0.60;;
67819;SDS011;54618;52.018;5.576;2023-01-19T06:53:12;1.40;;;0.43;;
67819;SDS011;54618;52.018;5.576;2023-01-19T06:55:40;1.83;;;0.60;;
67819;SDS011;54618;52.018;5.576;2023-01-19T06:58:07;0.95;;;0.52;;
67819;SDS011;54618;52.018;5.576;2023-01-19T07:00:32;1.33;;;0.50;;
67819;SDS011;54618;52.018;5.576;2023-01-19T07:02:58;0.80;;;0.50;;
67819;SDS011;54618;52.018;5.576;2023-01-19T07:05:23;1.42;;;0.60;;
67819;SDS011;54618;52.018;5.576;2023-01-19T07:07:53;1.45;;;0.50;;
67819;SDS011;54618;52.018;5.576;2023-01-19T07:10:19;1.73;;;0.50;;
67819;SDS011;54618;52.018;5.576;2023-01-19T07:12:45;1.10;;;0.52;;
67819;SDS011;54618;52.018;5.576;2023-01-19T07:15:11;1.50;;;0.65;;
67819;SDS011;54618;52.018;5.576;2023-01-19T07:17:38;1.33;;;0.50;;
67819;SDS011;54618;52.018;5.576;2023-01-19T07:20:06;1.75;;;0.50;;
67819;SDS011;54618;52.018;5.576;2023-01-19T07:22:35;1.50;;;0.50;;
67819;SDS011;54618;52.018;5.576;2023-01-19T07:25:01;0.55;;;0.30;;
67819;SDS011;54618;52.018;5.576;2023-01-19T07:27:26;1.20;;;0.47;;
67819;SDS011;54618;52.018;5.576;2023-01-19T07:29:52;1.92;;;0.50;;
67819;SDS011;54618;52.018;5.576;2023-01-19T07:32:18;1.35;;;0.43;;
67819;SDS011;54618;52.018;5.576;2023-01-19T07:34:44;0.88;;;0.43;;
67819;SDS011;54618;52.018;5.576;2023-01-19T07:37:09;0.73;;;0.47;;
67819;SDS011;54618;52.018;5.576;2023-01-19T07:39:35;1.15;;;0.50;;
67819;SDS011;54618;52.018;5.576;2023-01-19T07:42:01;2.00;;;0.50;;
67819;SDS011;54618;52.018;5.576;2023-01-19T07:44:26;1.08;;;0.50;;
67819;SDS011;54618;52.018;5.576;2023-01-19T07:46:52;1.52;;;0.50;;
67819;SDS011;54618;52.018;5.576;2023-01-19T07:49:18;2.17;;;0.70;;
67819;SDS011;54618;52.018;5.576;2023-01-19T07:51:44;1.65;;;0.47;;
67819;SDS011;54618;52.018;5.576;2023-01-19T07:54:10;2.30;;;0.55;;
67819;SDS011;54618;52.018;5.576;2023-01-19T07:56:36;1.48;;;0.50;;
67819;SDS011;54618;52.018;5.576;2023-01-19T07:59:01;1.17;;;0.40;;
67819;SDS011;54618;52.018;5.576;2023-01-19T08:01:27;1.10;;;0.40;;
67819;SDS011;54618;52.018;5.576;2023-01-19T08:03:53;1.75;;;0.60;;
67819;SDS011;54618;52.018;5.576;2023-01-19T08:06:23;1.48;;;0.50;;
67819;SDS011;54618;52.018;5.576;2023-01-19T08:08:53;1.30;;;0.52;;
67819;SDS011;54618;52.018;5.576;2023-01-19T08:11:19;1.92;;;0.50;;
67819;SDS011;54618;52.018;5.576;2023-01-19T08:13:45;1.17;;;0.60;;
67819;SDS011;54618;52.018;5.576;2023-01-19T08:16:10;1.85;;;0.68;;
67819;SDS011;54618;52.018;5.576;2023-01-19T08:18:36;1.02;;;0.50;;
67819;SDS011;54618;52.018;5.576;2023-01-19T08:21:01;1.13;;;0.50;;
67819;SDS011;54618;52.018;5.576;2023-01-19T08:23:27;1.35;;;0.50;;
67819;SDS011;54618;52.018;5.576;2023-01-19T08:25:53;2.05;;;0.70;;
67819;SDS011;54618;52.018;5.576;2023-01-19T08:28:19;1.48;;;0.43;;
67819;SDS011;54618;52.018;5.576;2023-01-19T08:30:45;1.70;;;0.70;;
67819;SDS011;54618;52.018;5.576;2023-01-19T08:33:17;1.38;;;0.60;;
67819;SDS011;54618;52.018;5.576;2023-01-19T08:35:46;1.15;;;0.50;;
67819;SDS011;54618;52.018;5.576;2023-01-19T08:38:13;1.77;;;0.70;;
67819;SDS011;54618;52.018;5.576;2023-01-19T08:40:39;1.80;;;0.65;;
67819;SDS011;54618;52.018;5.576;2023-01-19T08:43:09;0.98;;;0.60;;
67819;SDS011;54618;52.018;5.576;2023-01-19T08:48:05;1.85;;;0.60;;
67819;SDS011;54618;52.018;5.576;2023-01-19T08:50:32;1.23;;;0.50;;
67819;SDS011;54618;52.018;5.576;2023-01-19T08:52:58;1.27;;;0.50;;
67819;SDS011;54618;52.018;5.576;2023-01-19T08:55:25;1.38;;;0.60;;
67819;SDS011;54618;52.018;5.576;2023-01-19T08:57:52;3.50;;;0.80;;
67819;SDS011;54618;52.018;5.576;2023-01-19T09:00:20;1.55;;;0.60;;
67819;SDS011;54618;52.018;5.576;2023-01-19T09:02:46;1.85;;;0.57;;
67819;SDS011;54618;52.018;5.576;2023-01-19T09:05:12;3.13;;;0.63;;
67819;SDS011;54618;52.018;5.576;2023-01-19T09:07:37;1.08;;;0.60;;
67819;SDS011;54618;52.018;5.576;2023-01-19T09:10:03;1.40;;;0.60;;
67819;SDS011;54618;52.018;5.576;2023-01-19T09:12:30;1.30;;;0.50;;
67819;SDS011;54618;52.018;5.576;2023-01-19T09:14:56;1.52;;;0.63;;
67819;SDS011;54618;52.018;5.576;2023-01-19T09:17:21;1.33;;;0.50;;
67819;SDS011;54618;52.018;5.576;2023-01-19T09:19:47;1.80;;;0.70;;
67819;SDS011;54618;52.018;5.576;2023-01-19T09:22:12;1.33;;;0.60;;
67819;SDS011;54618;52.018;5.576;2023-01-19T09:24:38;1.23;;;0.50;;
67819;SDS011;54618;52.018;5.576;2023-01-19T09:27:04;1.40;;;0.47;;
67819;SDS011;54618;52.018;5.576;2023-01-19T09:29:29;1.48;;;0.43;;
67819;SDS011;54618;52.018;5.576;2023-01-19T09:31:55;1.05;;;0.47;;
67819;SDS011;54618;52.018;5.576;2023-01-19T09:34:21;2.17;;;0.68;;
67819;SDS011;54618;52.018;5.576;2023-01-19T09:36:49;2.72;;;0.70;;
67819;SDS011;54618;52.018;5.576;2023-01-19T09:39:16;1.83;;;0.60;;
67819;SDS011;54618;52.018;5.576;2023-01-19T09:41:44;3.40;;;0.63;;
67819;SDS011;54618;52.018;5.576;2023-01-19T09:44:17;1.55;;;0.70;;
67819;SDS011;54618;52.018;5.576;2023-01-19T09:46:48;1.83;;;0.60;;
67819;SDS011;54618;52.018;5.576;2023-01-19T09:49:22;1.48;;;0.50;;
67819;SDS011;54618;52.018;5.576;2023-01-19T09:51:51;2.67;;;0.70;;
67819;SDS011;54618;52.018;5.576;2023-01-19T09:54:18;2.03;;;0.60;;
67819;SDS011;54618;52.018;5.576;2023-01-19T09:56:55;1.83;;;0.60;;
67819;SDS011;54618;52.018;5.576;2023-01-19T10:07:35;1.88;;;0.65;;
67819;SDS011;54618;52.018;5.576;2023-01-19T10:10:20;2.85;;;0.70;;
67819;SDS011;54618;52.018;5.576;2023-01-19T10:13:16;1.98;;;0.50;;
67819;SDS011;54618;52.018;5.576;2023-01-19T10:16:09;1.25;;;0.52;;
67819;SDS011;54618;52.018;5.576;2023-01-19T10:19:43;1.98;;;0.80;;
67819;SDS011;54618;52.018;5.576;2023-01-19T10:22:17;2.00;;;0.80;;
67819;SDS011;54618;52.018;5.576;2023-01-19T10:24:45;2.28;;;0.60;;
67819;SDS011;54618;52.018;5.576;2023-01-19T10:27:17;2.15;;;0.70;;
67819;SDS011;54618;52.018;5.576;2023-01-19T10:29:45;2.40;;;0.77;;
67819;SDS011;54618;52.018;5.576;2023-01-19T10:34:45;1.63;;;0.70;;
67819;SDS011;54618;52.018;5.576;2023-01-19T10:45:02;3.13;;;0.55;;
67819;SDS011;54618;52.018;5.576;2023-01-19T10:47:38;2.40;;;0.60;;
67819;SDS011;54618;52.018;5.576;2023-01-19T10:50:17;2.05;;;0.70;;
67819;SDS011;54618;52.018;5.576;2023-01-19T10:53:01;1.42;;;0.50;;
67819;SDS011;54618;52.018;5.576;2023-01-19T10:55:30;2.42;;;0.77;;
67819;SDS011;54618;52.018;5.576;2023-01-19T10:57:57;1.80;;;0.63;;
67819;SDS011;54618;52.018;5.576;2023-01-19T11:00:28;1.70;;;0.68;;
67819;SDS011;54618;52.018;5.576;2023-01-19T11:03:20;1.13;;;0.50;;
67819;SDS011;54618;52.018;5.576;2023-01-19T11:05:48;2.00;;;0.70;;
67819;SDS011;54618;52.018;5.576;2023-01-19T11:08:26;2.63;;;0.60;;
67819;SDS011;54618;52.018;5.576;2023-01-19T11:13:23;2.20;;;0.52;;
67819;SDS011;54618;52.018;5.576;2023-01-19T11:15:58;3.05;;;0.70;;
67819;SDS011;54618;52.018;5.576;2023-01-19T11:18:33;2.13;;;0.50;;
67819;SDS011;54618;52.018;5.576;2023-01-19T11:21:07;2.30;;;0.80;;
67819;SDS011;54618;52.018;5.576;2023-01-19T11:23:44;2.45;;;0.70;;
67819;SDS011;54618;52.018;5.576;2023-01-19T11:26:15;2.20;;;0.50;;
67819;SDS011;54618;52.018;5.576;2023-01-19T11:28:54;1.95;;;0.60;;
67819;SDS011;54618;52.018;5.576;2023-01-19T11:33:55;1.65;;;0.70;;
67819;SDS011;54618;52.018;5.576;2023-01-19T11:36:26;2.85;;;0.60;;
67819;SDS011;54618;52.018;5.576;2023-01-19T11:38:54;3.42;;;0.82;;
67819;SDS011;54618;52.018;5.576;2023-01-19T11:41:25;1.67;;;0.70;;
67819;SDS011;54618;52.018;5.576;2023-01-19T11:43:52;2.30;;;0.70;;
67819;SDS011;54618;52.018;5.576;2023-01-19T11:46:21;2.63;;;0.63;;
67819;SDS011;54618;52.018;5.576;2023-01-19T11:48:54;2.85;;;0.85;;
67819;SDS011;54618;52.018;5.576;2023-01-19T11:51:29;2.72;;;0.60;;
67819;SDS011;54618;52.018;5.576;2023-01-19T11:53:59;2.72;;;0.70;;
67819;SDS011;54618;52.018;5.576;2023-01-19T11:56:32;2.40;;;0.73;;
67819;SDS011;54618;52.018;5.576;2023-01-19T11:58:59;2.65;;;0.70;;
67819;SDS011;54618;52.018;5.576;2023-01-19T12:04:15;2.88;;;1.00;;
67819;SDS011;54618;52.018;5.576;2023-01-19T12:06:47;5.18;;;1.10;;
67819;SDS011;54618;52.018;5.576;2023-01-19T12:17:29;2.83;;;0.82;;
67819;SDS011;54618;52.018;5.576;2023-01-19T12:20:06;3.28;;;0.98;;
67819;SDS011;54618;52.018;5.576;2023-01-19T12:22:44;1.95;;;0.70;;
67819;SDS011;54618;52.018;5.576;2023-01-19T12:27:48;2.90;;;0.90;;
67819;SDS011;54618;52.018;5.576;2023-01-19T12:30:20;2.75;;;0.98;;
67819;SDS011;54618;52.018;5.576;2023-01-19T12:32:48;3.03;;;0.98;;
67819;SDS011;54618;52.018;5.576;2023-01-19T12:52:08;4.13;;;1.05;;
67819;SDS011;54618;52.018;5.576;2023-01-19T12:54:37;2.38;;;0.70;;
67819;SDS011;54618;52.018;5.576;2023-01-19T12:57:08;3.47;;;0.70;;
67819;SDS011;54618;52.018;5.576;2023-01-19T12:59:43;2.47;;;0.80;;
67819;SDS011;54618;52.018;5.576;2023-01-19T13:13:20;1.63;;;0.63;;
67819;SDS011;54618;52.018;5.576;2023-01-19T13:15:58;3.13;;;0.70;;
67819;SDS011;54618;52.018;5.576;2023-01-19T13:18:42;3.13;;;0.70;;
67819;SDS011;54618;52.018;5.576;2023-01-19T13:21:30;1.20;;;0.60;;
67819;SDS011;54618;52.018;5.576;2023-01-19T13:24:05;2.53;;;0.90;;
67819;SDS011;54618;52.018;5.576;2023-01-19T13:26:33;2.67;;;0.73;;
67819;SDS011;54618;52.018;5.576;2023-01-19T13:29:20;2.00;;;0.70;;
67819;SDS011;54618;52.018;5.576;2023-01-19T13:31:54;1.75;;;0.50;;
67819;SDS011;54618;52.018;5.576;2023-01-19T13:34:29;2.83;;;0.80;;
67819;SDS011;54618;52.018;5.576;2023-01-19T13:37:10;2.45;;;0.63;;
67819;SDS011;54618;52.018;5.576;2023-01-19T13:39:47;2.05;;;0.80;;
67819;SDS011;54618;52.018;5.576;2023-01-19T13:47:58;1.70;;;0.60;;
67819;SDS011;54618;52.018;5.576;2023-01-19T13:50:27;2.17;;;0.60;;
67819;SDS011;54618;52.018;5.576;2023-01-19T13:52:55;1.90;;;0.63;;
67819;SDS011;54618;52.018;5.576;2023-01-19T13:55:23;2.78;;;0.73;;
67819;SDS011;54618;52.018;5.576;2023-01-19T13:57:50;3.28;;;0.60;;
67819;SDS011;54618;52.018;5.576;2023-01-19T14:00:18;2.88;;;0.73;;
67819;SDS011;54618;52.018;5.576;2023-01-19T14:03:01;2.42;;;0.63;;
67819;SDS011;54618;52.018;5.576;2023-01-19T14:05:36;1.65;;;0.60;;
67819;SDS011;54618;52.018;5.576;2023-01-19T14:10:38;2.20;;;0.60;;
67819;SDS011;54618;52.018;5.576;2023-01-19T14:13:18;1.77;;;0.55;;
67819;SDS011;54618;52.018;5.576;2023-01-19T14:15:46;1.50;;;0.47;;
67819;SDS011;54618;52.018;5.576;2023-01-19T14:21:01;1.42;;;0.60;;
67819;SDS011;54618;52.018;5.576;2023-01-19T14:26:00;1.75;;;0.70;;
67819;SDS011;54618;52.018;5.576;2023-01-19T14:28:35;1.75;;;0.45;;
67819;SDS011;54618;52.018;5.576;2023-01-19T14:31:21;1.08;;;0.40;;
67819;SDS011;54618;52.018;5.576;2023-01-19T14:33:50;1.83;;;0.57;;
67819;SDS011;54618;52.018;5.576;2023-01-19T14:38:58;2.45;;;0.57;;
67819;SDS011;54618;52.018;5.576;2023-01-19T14:44:10;1.60;;;0.50;;
67819;SDS011;54618;52.018;5.576;2023-01-19T14:46:44;2.03;;;0.40;;
67819;SDS011;54618;52.018;5.576;2023-01-19T14:49:12;1.88;;;0.50;;
67819;SDS011;54618;52.018;5.576;2023-01-19T14:51:48;1.95;;;0.60;;
67819;SDS011;54618;52.018;5.576;2023-01-19T14:54:15;2.30;;;0.47;;
67819;SDS011;54618;52.018;5.576;2023-01-19T14:56:49;2.22;;;0.55;;
67819;SDS011;54618;52.018;5.576;2023-01-19T14:59:17;1.42;;;0.50;;
67819;SDS011;54618;52.018;5.576;2023-01-19T15:01:43;0.93;;;0.40;;
67819;SDS011;54618;52.018;5.576;2023-01-19T15:04:08;3.00;;;0.68;;
67819;SDS011;54618;52.018;5.576;2023-01-19T15:06:34;6.95;;;0.75;;
67819;SDS011;54618;52.018;5.576;2023-01-19T15:09:05;2.35;;;0.70;;
67819;SDS011;54618;52.018;5.576;2023-01-19T15:11:33;4.97;;;0.80;;
67819;SDS011;54618;52.018;5.576;2023-01-19T15:13:59;1.48;;;0.57;;
67819;SDS011;54618;52.018;5.576;2023-01-19T15:16:26;2.25;;;0.60;;
67819;SDS011;54618;52.018;5.576;2023-01-19T15:18:53;1.20;;;0.60;;
67819;SDS011;54618;52.018;5.576;2023-01-19T15:21:20;3.10;;;0.60;;
67819;SDS011;54618;52.018;5.576;2023-01-19T15:23:53;2.10;;;0.50;;
67819;SDS011;54618;52.018;5.576;2023-01-19T15:26:19;1.30;;;0.60;;
67819;SDS011;54618;52.018;5.576;2023-01-19T15:28:47;2.95;;;0.60;;
67819;SDS011;54618;52.018;5.576;2023-01-19T15:31:14;2.92;;;0.77;;
67819;SDS011;54618;52.018;5.576;2023-01-19T15:33:41;1.90;;;0.63;;
67819;SDS011;54618;52.018;5.576;2023-01-19T15:36:13;1.13;;;0.50;;
67819;SDS011;54618;52.018;5.576;2023-01-19T15:38:41;1.58;;;0.60;;
67819;SDS011;54618;52.018;5.576;2023-01-19T15:41:13;2.80;;;0.60;;
67819;SDS011;54618;52.018;5.576;2023-01-19T15:43:42;2.13;;;0.77;;
67819;SDS011;54618;52.018;5.576;2023-01-19T15:46:08;1.52;;;0.60;;
67819;SDS011;54618;52.018;5.576;2023-01-19T15:48:37;1.77;;;0.50;;
67819;SDS011;54618;52.018;5.576;2023-01-19T15:51:02;3.03;;;0.57;;
67819;SDS011;54618;52.018;5.576;2023-01-19T15:53:29;1.88;;;0.50;;
67819;SDS011;54618;52.018;5.576;2023-01-19T15:55:55;1.92;;;0.70;;
67819;SDS011;54618;52.018;5.576;2023-01-19T15:58:20;1.77;;;0.75;;
67819;SDS011;54618;52.018;5.576;2023-01-19T16:00:54;1.60;;;0.50;;
67819;SDS011;54618;52.018;5.576;2023-01-19T16:03:20;2.13;;;0.80;;
67819;SDS011;54618;52.018;5.576;2023-01-19T16:05:46;2.08;;;0.68;;
67819;SDS011;54618;52.018;5.576;2023-01-19T16:08:12;1.90;;;0.70;;
67819;SDS011;54618;52.018;5.576;2023-01-19T16:10:38;3.83;;;0.70;;
67819;SDS011;54618;52.018;5.576;2023-01-19T16:13:05;2.13;;;0.77;;
67819;SDS011;54618;52.018;5.576;2023-01-19T16:15:35;2.53;;;1.05;;
67819;SDS011;54618;52.018;5.576;2023-01-19T16:18:02;7.93;;;5.07;;
67819;SDS011;54618;52.018;5.576;2023-01-19T16:20:28;9.32;;;5.10;;
67819;SDS011;54618;52.018;5.576;2023-01-19T16:22:55;9.45;;;5.00;;
67819;SDS011;54618;52.018;5.576;2023-01-19T16:25:20;7.07;;;3.90;;
67819;SDS011;54618;52.018;5.576;2023-01-19T16:27:47;7.35;;;3.60;;
67819;SDS011;54618;52.018;5.576;2023-01-19T16:30:13;7.22;;;3.42;;
67819;SDS011;54618;52.018;5.576;2023-01-19T16:32:40;6.80;;;3.50;;
67819;SDS011;54618;52.018;5.576;2023-01-19T16:35:06;8.27;;;4.03;;
67819;SDS011;54618;52.018;5.576;2023-01-19T16:37:32;8.15;;;3.45;;
67819;SDS011;54618;52.018;5.576;2023-01-19T16:39:58;7.22;;;3.50;;
67819;SDS011;54618;52.018;5.576;2023-01-19T16:42:23;6.18;;;2.95;;